createdAt,value
2022-10-17T00:00:39.172Z,100912.09
2022-10-17T00:03:06.367Z,100913.41
2022-10-17T00:05:33.505Z,100918.03
2022-10-17T00:08:00.106Z,100902.91
2022-10-17T00:10:26.895Z,100906.28
2022-10-17T00:12:53.529Z,100909.41
2022-10-17T00:15:21.628Z,100912.66
2022-10-17T00:17:48.458Z,100906.84
2022-10-17T00:20:16.224Z,100905.16
2022-10-17T00:22:43.536Z,100908.66
2022-10-17T00:25:10.393Z,100911.19
2022-10-17T00:27:38.648Z,100911.94
2022-10-17T00:30:07.919Z,100908.84
2022-10-17T00:32:34.690Z,100916.25
2022-10-17T00:35:01.768Z,100902.16
2022-10-17T00:37:31.161Z,100906.03
2022-10-17T00:39:57.766Z,100908.09
2022-10-17T00:42:25.238Z,100900.47
2022-10-17T00:45:22.756Z,100904.47
2022-10-17T00:47:55.387Z,100901.78
2022-10-17T00:50:22.279Z,100904.09
2022-10-17T00:52:50.336Z,100908.56
2022-10-17T00:55:22.773Z,100896.72
2022-10-17T00:57:50.453Z,100898.66
2022-10-17T01:00:20.085Z,100893.56
2022-10-17T01:02:47.653Z,100887.28
2022-10-17T01:05:15.477Z,100895.28
2022-10-17T01:07:43.982Z,100896.34
2022-10-17T01:10:12.875Z,100900.81
2022-10-17T01:13:13.717Z,100888.72
2022-10-17T01:16:00.669Z,100887.63
2022-10-17T01:19:00.201Z,100888.34
2022-10-17T01:21:33.327Z,100891.75
2022-10-17T01:24:24.882Z,100889.09
2022-10-17T01:27:29.098Z,100892.97
2022-10-17T01:30:14.260Z,100892.72
2022-10-17T01:32:46.841Z,100898.06
2022-10-17T01:35:25.722Z,100889.72
2022-10-17T01:38:14.260Z,100888.50
2022-10-17T01:40:44.409Z,100880.84
2022-10-17T01:43:25.857Z,100882.94
2022-10-17T01:46:02.959Z,100882.41
2022-10-17T01:48:38.443Z,100880.25
2022-10-17T01:51:13.256Z,100880.38
2022-10-17T01:53:49.937Z,100872.75
2022-10-17T01:56:19.650Z,100876.38
2022-10-17T01:58:55.378Z,100876.00
2022-10-17T02:01:23.609Z,100868.63
2022-10-17T02:03:51.439Z,100870.31
2022-10-17T02:06:18.049Z,100865.72
2022-10-17T02:08:47.685Z,100860.75
2022-10-17T02:11:20.964Z,100860.91
2022-10-17T02:17:11.659Z,100860.28
2022-10-17T02:19:50.314Z,100856.06
2022-10-17T02:22:51.866Z,100859.69
2022-10-17T02:25:47.803Z,100844.66
2022-10-17T02:28:23.719Z,100853.75
2022-10-17T02:30:58.251Z,100847.56
2022-10-17T02:33:39.284Z,100850.34
2022-10-17T02:36:15.094Z,100851.94
2022-10-17T02:38:43.460Z,100849.50
2022-10-17T02:41:16.194Z,100844.06
2022-10-17T02:43:45.410Z,100842.59
2022-10-17T02:46:20.837Z,100844.66
2022-10-17T02:48:55.274Z,100845.50
2022-10-17T02:51:32.748Z,100844.53
2022-10-17T02:54:22.800Z,100855.56
2022-10-17T02:56:59.020Z,100851.69
2022-10-17T02:59:28.290Z,100846.59
2022-10-17T03:01:55.293Z,100846.09
2022-10-17T03:04:21.923Z,100856.16
2022-10-17T03:06:49.448Z,100847.44
2022-10-17T03:09:16.404Z,100848.28
2022-10-17T03:11:43.051Z,100846.31
2022-10-17T03:14:09.901Z,100857.00
2022-10-17T03:16:36.562Z,100852.28
2022-10-17T03:19:04.758Z,100853.25
2022-10-17T03:21:32.346Z,100856.03
2022-10-17T03:23:59.292Z,100856.03
2022-10-17T03:26:26.371Z,100855.09
2022-10-17T03:28:54.527Z,100862.59
2022-10-17T03:31:22.912Z,100852.66
2022-10-17T03:33:51.115Z,100852.28
2022-10-17T03:36:19.307Z,100853.88
2022-10-17T03:38:47.307Z,100862.44
2022-10-17T03:41:14.745Z,100862.34
2022-10-17T03:43:42.138Z,100861.13
2022-10-17T03:46:09.106Z,100872.63
2022-10-17T03:48:36.947Z,100872.25
2022-10-17T03:51:09.175Z,100880.25
2022-10-17T03:53:42.159Z,100876.63
2022-10-17T03:56:11.360Z,100866.22
2022-10-17T03:58:38.198Z,100874.72
2022-10-17T04:01:06.462Z,100877.59
2022-10-17T04:03:34.002Z,100873.75
2022-10-17T04:06:01.571Z,100876.88
2022-10-17T04:08:29.710Z,100881.00
2022-10-17T04:11:08.314Z,100876.63
2022-10-17T04:13:35.612Z,100877.13
2022-10-17T04:16:07.867Z,100879.31
2022-10-17T04:18:38.884Z,100878.09
2022-10-17T04:21:07.091Z,100890.69
2022-10-17T04:23:34.465Z,100893.81
2022-10-17T04:26:10.272Z,100885.72
2022-10-17T04:28:37.171Z,100889.22
2022-10-17T04:31:09.767Z,100890.22
2022-10-17T04:33:55.343Z,100882.69
2022-10-17T04:36:23.293Z,100889.22
2022-10-17T04:38:50.320Z,100885.25
2022-10-17T04:41:18.513Z,100887.66
2022-10-17T04:43:50.091Z,100892.13
2022-10-17T04:46:19.145Z,100892.38
2022-10-17T04:48:46.273Z,100893.00
2022-10-17T04:51:15.510Z,100889.47
2022-10-17T04:54:08.139Z,100887.56
2022-10-17T04:56:35.750Z,100888.28
2022-10-17T04:59:02.355Z,100893.13
2022-10-17T05:01:29.144Z,100893.13
2022-10-17T05:03:56.359Z,100899.19
2022-10-17T05:06:25.821Z,100895.81
2022-10-17T05:09:10.996Z,100902.59
2022-10-17T05:11:37.682Z,100900.03
2022-10-17T05:14:04.543Z,100906.81
2022-10-17T05:16:32.546Z,100907.19
2022-10-17T05:18:59.766Z,100895.19
2022-10-17T05:24:09.258Z,100913.97
2022-10-17T05:26:35.932Z,100910.69
2022-10-17T05:29:03.865Z,100914.69
2022-10-17T05:31:32.836Z,100918.81
2022-10-17T05:34:04.034Z,100917.47
2022-10-17T05:36:33.094Z,100919.31
2022-10-17T05:39:01.285Z,100915.53
2022-10-17T05:41:28.695Z,100917.13
2022-10-17T05:43:55.311Z,100921.84
2022-10-17T05:46:34.313Z,100925.69
2022-10-17T05:49:01.061Z,100928.47
2022-10-17T05:51:27.735Z,100937.47
2022-10-17T05:53:56.229Z,100934.56
2022-10-17T05:56:26.643Z,100940.72
2022-10-17T05:58:58.626Z,100944.88
2022-10-17T06:01:37.796Z,100942.19
2022-10-17T06:04:04.723Z,100940.13
2022-10-17T06:06:31.585Z,100945.72
2022-10-17T06:08:58.266Z,100935.63
2022-10-17T06:11:31.137Z,100940.97
2022-10-17T06:13:59.188Z,100947.16
2022-10-17T06:16:28.100Z,100950.28
2022-10-17T06:18:54.812Z,100952.59
2022-10-17T06:21:24.392Z,100950.78
2022-10-17T06:23:53.593Z,100948.13
2022-10-17T06:26:30.867Z,100956.13
2022-10-17T06:28:58.056Z,100963.41
2022-10-17T06:31:27.158Z,100971.53
2022-10-17T06:33:53.718Z,100969.81
2022-10-17T06:36:20.566Z,100984.72
2022-10-17T06:38:48.362Z,100972.16
2022-10-17T06:41:23.776Z,100971.69
2022-10-17T06:43:52.719Z,100974.81
2022-10-17T06:46:45.537Z,100985.88
2022-10-17T06:49:15.551Z,100983.56
2022-10-17T06:51:50.959Z,100978.13
2022-10-17T06:54:22.213Z,100977.50
2022-10-17T06:57:07.711Z,100982.13
2022-10-17T07:00:13.869Z,100977.13
2022-10-17T07:02:45.844Z,100980.44
2022-10-17T07:05:12.533Z,100988.19
2022-10-17T07:07:43.049Z,100990.81
2022-10-17T07:10:11.819Z,100993.25
2022-10-17T07:12:39.999Z,100998.09
2022-10-17T07:15:07.080Z,101009.13
2022-10-17T07:17:34.384Z,101003.34
2022-10-17T07:20:01.720Z,101003.94
2022-10-17T07:22:31.041Z,101012.28
2022-10-17T07:24:58.487Z,101004.66
2022-10-17T07:27:29.763Z,101004.78
2022-10-17T07:29:56.524Z,101005.03
2022-10-17T07:32:32.487Z,101007.78
2022-10-17T07:34:59.373Z,101010.72
2022-10-17T07:37:25.959Z,101008.09
2022-10-17T07:39:56.535Z,101009.97
2022-10-17T07:42:23.794Z,101016.16
2022-10-17T07:44:51.056Z,101020.91
2022-10-17T07:47:17.712Z,101011.28
2022-10-17T07:49:45.934Z,101011.28
2022-10-17T07:52:16.584Z,101007.84
2022-10-17T07:54:43.967Z,101009.41
2022-10-17T07:57:10.550Z,101009.47
2022-10-17T07:59:38.336Z,101017.63
2022-10-17T08:02:05.391Z,101016.22
2022-10-17T08:04:32.097Z,101023.16
2022-10-17T08:07:11.329Z,101020.59
2022-10-17T08:09:46.297Z,101014.41
2022-10-17T08:12:14.848Z,101016.72
2022-10-17T08:14:42.333Z,101015.25
2022-10-17T08:17:09.525Z,101009.25
2022-10-17T08:19:40.402Z,101010.53
2022-10-17T08:22:08.049Z,101012.84
2022-10-17T08:24:34.883Z,101017.34
2022-10-17T08:27:01.635Z,101028.72
2022-10-17T08:29:28.355Z,101028.38
2022-10-17T08:32:00.998Z,101032.13
2022-10-17T08:34:29.327Z,101035.63
2022-10-17T08:36:55.956Z,101030.00
2022-10-17T08:39:22.622Z,101053.06
2022-10-17T08:42:05.733Z,101044.75
2022-10-17T08:44:49.804Z,101058.31
2022-10-17T08:47:23.987Z,101054.56
2022-10-17T08:50:00.792Z,101054.19
2022-10-17T08:52:37.908Z,101057.34
2022-10-17T08:55:15.350Z,101058.53
2022-10-17T08:57:43.034Z,101060.16
2022-10-17T09:00:20.035Z,101057.81
2022-10-17T09:03:11.450Z,101054.06
2022-10-17T09:06:18.215Z,101057.19
2022-10-17T09:08:50.901Z,101058.81
2022-10-17T09:11:39.522Z,101061.00
2022-10-17T09:14:24.667Z,101065.69
2022-10-17T09:17:18.975Z,101071.53
2022-10-17T09:20:00.167Z,101069.50
2022-10-17T09:22:34.372Z,101079.94
2022-10-17T09:25:06.800Z,101086.97
2022-10-17T09:27:42.265Z,101083.56
2022-10-17T09:30:45.123Z,101088.66
2022-10-17T09:33:42.400Z,101094.44
2022-10-17T09:36:19.384Z,101094.31
2022-10-17T09:38:52.398Z,101100.25
2022-10-17T09:41:46.449Z,101104.84
2022-10-17T09:44:29.496Z,101110.88
2022-10-17T09:47:06.259Z,101119.16
2022-10-17T09:49:37.753Z,101125.38
2022-10-17T09:52:11.597Z,101125.03
2022-10-17T09:54:48.047Z,101137.34
2022-10-17T09:57:16.380Z,101139.53
2022-10-17T10:00:05.790Z,101139.03
2022-10-17T10:02:40.864Z,101151.06
2022-10-17T10:05:19.881Z,101152.66
2022-10-17T10:08:21.508Z,101145.19
2022-10-17T10:10:58.474Z,101158.31
2022-10-17T10:13:26.721Z,101165.63
2022-10-17T10:15:53.617Z,101169.28
2022-10-17T10:18:26.281Z,101178.41
2022-10-17T10:21:14.199Z,101171.94
2022-10-17T10:23:43.791Z,101175.81
2022-10-17T10:26:24.386Z,101186.28
2022-10-17T10:28:57.485Z,101188.16
2022-10-17T10:31:33.894Z,101202.34
2022-10-17T10:34:04.873Z,101194.22
2022-10-17T10:36:52.082Z,101200.13
2022-10-17T10:39:42.821Z,101205.72
2022-10-17T10:42:21.554Z,101198.28
2022-10-17T10:44:50.200Z,101194.72
2022-10-17T10:47:28.532Z,101207.81
2022-10-17T10:50:17.538Z,101195.28
2022-10-17T10:53:12.161Z,101197.84
2022-10-17T10:56:00.733Z,101194.88
2022-10-17T10:58:30.377Z,101200.38
2022-10-17T11:01:00.757Z,101210.41
2022-10-17T11:03:35.895Z,101217.69
2022-10-17T11:06:12.368Z,101215.81
2022-10-17T11:08:45.782Z,101234.97
2022-10-17T11:11:25.533Z,101234.78
2022-10-17T11:14:19.551Z,101246.47
2022-10-17T11:17:10.369Z,101252.31
2022-10-17T11:19:44.585Z,101256.66
2022-10-17T11:22:26.583Z,101244.84
2022-10-17T11:25:25.447Z,101255.00
2022-10-17T11:27:52.032Z,101260.50
2022-10-17T11:30:18.795Z,101240.94
2022-10-17T11:32:59.235Z,101255.50
2022-10-17T11:35:55.324Z,101245.28
2022-10-17T11:38:41.825Z,101236.88
2022-10-17T11:41:15.264Z,101231.56
2022-10-17T11:44:07.541Z,101224.19
2022-10-17T11:46:37.205Z,101214.91
2022-10-17T11:49:20.676Z,101213.47
2022-10-17T11:52:07.295Z,101223.06
2022-10-17T11:54:50.747Z,101233.66
2022-10-17T11:57:48.999Z,101224.94
2022-10-17T12:00:41.738Z,101229.72
2022-10-17T12:03:31.241Z,101226.19
2022-10-17T12:06:03.474Z,101241.41
2022-10-17T12:08:46.989Z,101250.66
2022-10-17T12:11:34.664Z,101255.63
2022-10-17T12:14:05.755Z,101250.31
2022-10-17T12:16:33.798Z,101252.75
2022-10-17T12:19:00.338Z,101255.56
2022-10-17T12:21:31.317Z,101239.75
2022-10-17T12:23:58.869Z,101262.16
2022-10-17T12:26:28.462Z,101253.00
2022-10-17T12:28:57.195Z,101269.94
2022-10-17T12:31:29.624Z,101265.44
2022-10-17T12:34:02.891Z,101264.63
2022-10-17T12:36:29.523Z,101249.97
2022-10-17T12:39:01.985Z,101255.44
2022-10-17T12:41:41.269Z,101251.53
2022-10-17T12:44:13.893Z,101254.97
2022-10-17T12:46:44.132Z,101269.34
2022-10-17T12:49:37.071Z,101262.75
2022-10-17T12:52:55.831Z,101275.63
2022-10-17T12:55:25.655Z,101279.94
2022-10-17T12:58:12.727Z,101269.81
2022-10-17T13:01:23.816Z,101277.78
2022-10-17T13:03:46.496Z,101269.16
2022-10-17T13:06:22.078Z,101280.22
2022-10-17T13:08:56.197Z,101283.59
2022-10-17T13:11:28.934Z,101279.00
2022-10-17T13:13:58.877Z,101294.56
2022-10-17T13:16:34.551Z,101296.38
2022-10-17T13:19:04.012Z,101291.63
2022-10-17T13:21:31.626Z,101297.97
2022-10-17T13:23:58.235Z,101300.63
2022-10-17T13:26:28.411Z,101313.78
2022-10-17T13:29:05.609Z,101314.47
2022-10-17T13:31:35.597Z,101324.56
2022-10-17T13:34:14.912Z,101322.97
2022-10-17T13:36:47.957Z,101320.16
2022-10-17T13:39:23.053Z,101322.97
2022-10-17T13:41:59.636Z,101331.50
2022-10-17T13:44:31.983Z,101330.84
2022-10-17T13:46:58.753Z,101330.72
2022-10-17T13:49:36.893Z,101332.22
2022-10-17T13:52:06.249Z,101341.81
2022-10-17T13:54:40.287Z,101337.72
2022-10-17T13:57:21.424Z,101338.72
2022-10-17T14:00:12.437Z,101346.59
2022-10-17T14:02:40.984Z,101342.97
2022-10-17T14:05:23.124Z,101336.84
2022-10-17T14:10:42.375Z,101337.50
2022-10-17T14:13:23.835Z,101343.44
2022-10-17T14:15:52.689Z,101351.56
2022-10-17T14:18:36.120Z,101358.25
2022-10-17T14:23:53.325Z,101356.66
2022-10-17T14:26:23.804Z,101361.88
2022-10-17T14:29:21.736Z,101355.00
2022-10-17T14:31:50.653Z,101350.38
2022-10-17T14:34:23.860Z,101355.09
2022-10-17T14:36:53.081Z,101363.47
2022-10-17T14:39:23.447Z,101360.91
2022-10-17T14:41:51.802Z,101361.31
2022-10-17T14:44:31.472Z,101367.25
2022-10-17T14:47:05.954Z,101362.41
2022-10-17T14:49:39.845Z,101366.75
2022-10-17T14:52:15.238Z,101371.78
2022-10-17T14:54:49.076Z,101381.50
2022-10-17T14:57:26.936Z,101381.38
2022-10-17T14:59:56.170Z,101391.94
2022-10-17T15:02:27.841Z,101399.97
2022-10-17T15:04:54.893Z,101405.94
2022-10-17T15:07:22.213Z,101418.03
2022-10-17T15:09:50.765Z,101403.72
2022-10-17T15:12:19.865Z,101417.19
2022-10-17T15:14:48.414Z,101425.31
2022-10-17T15:17:18.864Z,101425.00
2022-10-17T15:19:45.533Z,101440.41
2022-10-17T15:22:12.292Z,101440.41
2022-10-17T15:24:39.202Z,101434.72
2022-10-17T15:27:17.560Z,101438.63
2022-10-17T15:29:45.068Z,101446.41
2022-10-17T15:32:12.227Z,101439.47
2022-10-17T15:34:39.526Z,101441.63
2022-10-17T15:37:10.811Z,101440.50
2022-10-17T15:39:37.516Z,101437.56
2022-10-17T15:42:09.085Z,101439.78
2022-10-17T15:44:36.571Z,101443.53
2022-10-17T15:47:03.549Z,101432.72
2022-10-17T15:49:30.197Z,101439.16
2022-10-17T15:51:56.882Z,101437.94
2022-10-17T15:54:23.479Z,101439.53
2022-10-17T15:56:54.580Z,101444.75
2022-10-17T15:59:29.827Z,101459.75
2022-10-17T16:01:56.464Z,101464.81
2022-10-17T16:04:26.649Z,101474.44
2022-10-17T16:06:53.363Z,101476.25
2022-10-17T16:09:20.124Z,101476.00
2022-10-17T16:11:46.886Z,101489.59
2022-10-17T16:14:15.836Z,101494.09
2022-10-17T16:16:42.948Z,101491.75
2022-10-17T16:19:09.839Z,101504.19
2022-10-17T16:21:39.255Z,101516.06
2022-10-17T16:24:07.045Z,101532.00
2022-10-17T16:26:33.631Z,101533.09
2022-10-17T16:29:04.691Z,101539.78
2022-10-17T16:31:34.854Z,101533.94
2022-10-17T16:34:03.836Z,101534.63
2022-10-17T16:36:30.475Z,101530.84
2022-10-17T16:38:57.106Z,101535.28
2022-10-17T16:41:36.564Z,101526.25
2022-10-17T16:44:06.102Z,101528.34
2022-10-17T16:46:34.032Z,101524.00
2022-10-17T16:49:00.665Z,101526.41
2022-10-17T16:51:29.058Z,101525.72
2022-10-17T16:53:56.975Z,101532.63
2022-10-17T16:56:24.746Z,101534.69
2022-10-17T16:58:51.822Z,101536.56
2022-10-17T17:01:23.167Z,101537.19
2022-10-17T17:03:51.397Z,101539.03
2022-10-17T17:06:24.214Z,101549.31
2022-10-17T17:08:51.409Z,101551.94
2022-10-17T17:11:20.445Z,101548.28
2022-10-17T17:13:47.986Z,101542.41
2022-10-17T17:16:21.514Z,101544.44
2022-10-17T17:18:53.986Z,101545.78
2022-10-17T17:21:20.660Z,101552.16
2022-10-17T17:23:47.397Z,101546.41
2022-10-17T17:26:17.635Z,101548.59
2022-10-17T17:28:45.653Z,101553.69
2022-10-17T17:31:15.511Z,101552.91
2022-10-17T17:33:42.836Z,101541.00
2022-10-17T17:36:13.958Z,101548.19
2022-10-17T17:38:41.274Z,101556.53
2022-10-17T17:41:07.871Z,101554.56
2022-10-17T17:43:35.738Z,101556.91
2022-10-17T17:46:02.490Z,101571.72
2022-10-17T17:48:29.669Z,101583.50
2022-10-17T17:50:56.666Z,101576.84
2022-10-17T17:53:23.976Z,101585.69
2022-10-17T17:56:01.744Z,101584.66
2022-10-17T17:58:28.537Z,101598.06
2022-10-17T18:00:55.525Z,101601.94
2022-10-17T18:03:22.285Z,101600.22
2022-10-17T18:05:48.944Z,101610.31
2022-10-17T18:08:15.849Z,101594.56
2022-10-17T18:10:47.828Z,101595.41
2022-10-17T18:13:14.698Z,101594.53
2022-10-17T18:15:42.657Z,101596.22
2022-10-17T18:18:09.872Z,101607.63
2022-10-17T18:20:43.420Z,101608.19
2022-10-17T18:23:11.214Z,101602.19
2022-10-17T18:25:37.940Z,101609.88
2022-10-17T18:28:05.079Z,101609.34
2022-10-17T18:30:34.411Z,101618.84
2022-10-17T18:33:01.437Z,101610.50
2022-10-17T18:35:28.087Z,101616.63
2022-10-17T18:37:56.903Z,101621.81
2022-10-17T18:40:23.605Z,101621.81
2022-10-17T18:42:50.374Z,101617.78
2022-10-17T18:45:17.404Z,101615.22
2022-10-17T18:47:47.229Z,101614.16
2022-10-17T18:50:14.689Z,101613.28
2022-10-17T18:52:41.408Z,101617.78
2022-10-17T18:55:08.562Z,101620.41
2022-10-17T18:57:35.274Z,101631.06
2022-10-17T19:00:01.943Z,101646.53
2022-10-17T19:02:28.510Z,101642.88
2022-10-17T19:04:55.077Z,101634.00
2022-10-17T19:07:21.735Z,101642.28
2022-10-17T19:09:48.561Z,101646.75
2022-10-17T19:12:15.603Z,101654.25
2022-10-17T19:14:42.211Z,101657.25
2022-10-17T19:17:08.752Z,101660.72
2022-10-17T19:19:36.021Z,101658.72
2022-10-17T19:22:03.430Z,101648.97
2022-10-17T19:24:30.469Z,101648.66
2022-10-17T19:27:02.448Z,101653.19
2022-10-17T19:29:31.689Z,101651.84
2022-10-17T19:31:58.932Z,101646.97
2022-10-17T19:34:27.607Z,101648.69
2022-10-17T19:36:55.685Z,101650.81
2022-10-17T19:39:23.812Z,101648.25
2022-10-17T19:41:50.455Z,101648.31
2022-10-17T19:44:17.482Z,101649.22
2022-10-17T19:46:46.550Z,101653.25
2022-10-17T19:49:13.607Z,101649.75
2022-10-17T19:51:40.665Z,101660.53
2022-10-17T19:54:07.850Z,101657.66
2022-10-17T19:56:38.111Z,101663.44
2022-10-17T19:59:06.253Z,101656.44
2022-10-17T20:01:38.555Z,101667.28
2022-10-17T20:04:06.158Z,101660.31
2022-10-17T20:06:33.612Z,101663.50
2022-10-17T20:09:00.305Z,101660.72
2022-10-17T20:11:28.597Z,101666.69
2022-10-17T20:13:56.501Z,101661.16
2022-10-17T20:16:27.050Z,101666.81
2022-10-17T20:18:55.814Z,101663.97
2022-10-17T20:21:27.364Z,101662.47
2022-10-17T20:23:54.769Z,101672.53
2022-10-17T20:26:33.668Z,101672.09
2022-10-17T20:29:08.724Z,101671.00
2022-10-17T20:31:35.787Z,101681.97
2022-10-17T20:34:03.347Z,101680.47
2022-10-17T20:36:30.132Z,101675.06
2022-10-17T20:38:58.021Z,101673.59
2022-10-17T20:41:26.510Z,101677.69
2022-10-17T20:43:55.289Z,101668.41
2022-10-17T20:46:36.236Z,101670.16
2022-10-17T20:49:05.619Z,101676.59
2022-10-17T20:51:32.523Z,101672.28
2022-10-17T20:53:59.437Z,101671.44
2022-10-17T20:56:29.207Z,101671.44
2022-10-17T20:58:58.296Z,101674.03
2022-10-17T21:01:26.029Z,101666.69
2022-10-17T21:03:53.025Z,101676.50
2022-10-17T21:06:20.485Z,101687.06
2022-10-17T21:08:48.599Z,101680.44
2022-10-17T21:11:17.636Z,101680.50
2022-10-17T21:13:45.322Z,101686.28
2022-10-17T21:16:14.509Z,101691.56
2022-10-17T21:18:42.457Z,101697.13
2022-10-17T21:21:11.839Z,101702.06
2022-10-17T21:23:39.605Z,101703.88
2022-10-17T21:26:08.792Z,101716.72
2022-10-17T21:28:37.191Z,101715.88
2022-10-17T21:31:24.891Z,101717.53
2022-10-17T21:33:55.337Z,101719.91
2022-10-17T21:36:23.654Z,101722.09
2022-10-17T21:38:52.364Z,101717.78
2022-10-17T21:41:20.749Z,101719.31
2022-10-17T21:43:48.082Z,101718.47
2022-10-17T21:46:17.434Z,101722.94
2022-10-17T21:48:45.679Z,101717.97
2022-10-17T21:51:14.936Z,101720.66
2022-10-17T21:53:42.123Z,101725.47
2022-10-17T21:56:15.549Z,101736.81
2022-10-17T21:58:42.729Z,101727.34
2022-10-17T22:01:19.426Z,101732.28
2022-10-17T22:03:49.161Z,101724.22
2022-10-17T22:06:38.577Z,101728.06
2022-10-17T22:09:08.299Z,101732.59
2022-10-17T22:11:35.526Z,101726.81
2022-10-17T22:14:04.654Z,101737.63
2022-10-17T22:16:31.864Z,101733.75
2022-10-17T22:19:03.293Z,101732.03
2022-10-17T22:21:33.513Z,101734.81
2022-10-17T22:24:02.993Z,101732.44
2022-10-17T22:26:31.307Z,101717.19
2022-10-17T22:28:58.171Z,101712.78
2022-10-17T22:31:25.188Z,101728.00
2022-10-17T22:33:51.937Z,101729.53
2022-10-17T22:36:18.911Z,101736.00
2022-10-17T22:38:45.982Z,101739.00
2022-10-17T22:41:12.567Z,101737.53
2022-10-17T22:43:40.126Z,101738.63
2022-10-17T22:46:07.894Z,101743.13
2022-10-17T22:48:36.830Z,101739.88
2022-10-17T22:51:03.445Z,101742.91
2022-10-17T22:53:30.125Z,101737.28
2022-10-17T22:56:03.234Z,101738.56
2022-10-17T22:58:31.751Z,101737.28
2022-10-17T23:00:58.731Z,101749.94
2022-10-17T23:03:27.553Z,101754.03
2022-10-17T23:05:54.997Z,101748.03
2022-10-17T23:08:21.679Z,101749.34
2022-10-17T23:10:48.922Z,101748.50
2022-10-17T23:13:16.269Z,101757.09
2022-10-17T23:15:43.290Z,101753.63
2022-10-17T23:18:10.296Z,101743.72
2022-10-17T23:20:37.977Z,101742.06
2022-10-17T23:23:05.082Z,101740.13
2022-10-17T23:25:33.686Z,101742.50
2022-10-17T23:28:01.001Z,101743.44
2022-10-17T23:30:28.776Z,101751.78
2022-10-17T23:32:55.337Z,101748.09
2022-10-17T23:35:22.130Z,101745.13
2022-10-17T23:37:48.779Z,101749.84
2022-10-17T23:40:15.969Z,101746.03
2022-10-17T23:42:42.662Z,101753.72
2022-10-17T23:45:09.744Z,101756.50
2022-10-17T23:47:37.256Z,101756.28
2022-10-17T23:50:05.114Z,101752.59
2022-10-17T23:52:32.033Z,101756.69
2022-10-17T23:54:58.764Z,101755.97
2022-10-17T23:57:25.393Z,101753.47
2022-10-17T23:59:52.394Z,101750.47
